sensor_id;sensor_type;location;lat;lon;timestamp;temperature;humidity
15409;DHT22;7803;48.130;13.788;2022-10-31T00:01:16;22.70;99.90
15409;DHT22;7803;48.130;13.788;2022-10-31T00:04:18;22.80;99.90
15409;DHT22;7803;48.130;13.788;2022-10-31T00:07:20;22.70;99.90
15409;DHT22;7803;48.130;13.788;2022-10-31T00:10:23;22.70;99.90
15409;DHT22;7803;48.130;13.788;2022-10-31T00:13:26;22.70;99.90
15409;DHT22;7803;48.130;13.788;2022-10-31T00:16:28;22.70;99.90
15409;DHT22;7803;48.130;13.788;2022-10-31T00:19:31;22.70;99.90
15409;DHT22;7803;48.130;13.788;2022-10-31T00:22:33;22.80;99.90
15409;DHT22;7803;48.130;13.788;2022-10-31T00:25:36;22.70;99.90
15409;DHT22;7803;48.130;13.788;2022-10-31T00:28:40;22.70;99.90
15409;DHT22;7803;48.130;13.788;2022-10-31T00:31:42;22.70;99.90
15409;DHT22;7803;48.130;13.788;2022-10-31T00:34:44;22.70;99.90
15409;DHT22;7803;48.130;13.788;2022-10-31T00:37:46;22.70;99.90
15409;DHT22;7803;48.130;13.788;2022-10-31T00:40:48;22.70;99.90
15409;DHT22;7803;48.130;13.788;2022-10-31T00:43:51;22.70;99.90
15409;DHT22;7803;48.130;13.788;2022-10-31T00:46:53;22.70;99.90
15409;DHT22;7803;48.130;13.788;2022-10-31T00:49:55;22.70;99.90
15409;DHT22;7803;48.130;13.788;2022-10-31T00:52:57;22.70;99.90
15409;DHT22;7803;48.130;13.788;2022-10-31T00:55:59;22.70;99.90
15409;DHT22;7803;48.130;13.788;2022-10-31T00:59:03;22.70;99.90
15409;DHT22;7803;48.130;13.788;2022-10-31T01:02:05;22.70;99.90
15409;DHT22;7803;48.130;13.788;2022-10-31T01:05:07;22.70;99.90
15409;DHT22;7803;48.130;13.788;2022-10-31T01:08:09;22.70;99.90
15409;DHT22;7803;48.130;13.788;2022-10-31T01:11:13;22.60;99.90
15409;DHT22;7803;48.130;13.788;2022-10-31T01:14:17;22.60;99.90
15409;DHT22;7803;48.130;13.788;2022-10-31T01:17:19;22.60;99.90
15409;DHT22;7803;48.130;13.788;2022-10-31T01:20:21;22.60;99.90
15409;DHT22;7803;48.130;13.788;2022-10-31T01:23:23;22.70;99.90
15409;DHT22;7803;48.130;13.788;2022-10-31T01:26:27;22.70;99.90
15409;DHT22;7803;48.130;13.788;2022-10-31T01:29:31;22.70;99.90
15409;DHT22;7803;48.130;13.788;2022-10-31T01:32:33;22.60;99.90
15409;DHT22;7803;48.130;13.788;2022-10-31T01:35:35;22.60;99.90
15409;DHT22;7803;48.130;13.788;2022-10-31T01:38:37;22.60;99.90
15409;DHT22;7803;48.130;13.788;2022-10-31T01:41:41;22.60;99.90
15409;DHT22;7803;48.130;13.788;2022-10-31T01:44:59;22.60;99.90
15409;DHT22;7803;48.130;13.788;2022-10-31T01:48:02;22.60;99.90
15409;DHT22;7803;48.130;13.788;2022-10-31T01:51:04;22.60;99.90
15409;DHT22;7803;48.130;13.788;2022-10-31T01:54:09;22.60;99.90
15409;DHT22;7803;48.130;13.788;2022-10-31T01:57:14;22.60;99.90
15409;DHT22;7803;48.130;13.788;2022-10-31T02:00:19;22.60;99.90
15409;DHT22;7803;48.130;13.788;2022-10-31T02:03:22;22.60;99.90
15409;DHT22;7803;48.130;13.788;2022-10-31T02:06:31;22.60;99.90
15409;DHT22;7803;48.130;13.788;2022-10-31T02:09:36;22.60;99.90
15409;DHT22;7803;48.130;13.788;2022-10-31T02:12:40;22.60;99.90
15409;DHT22;7803;48.130;13.788;2022-10-31T02:15:45;22.60;99.90
15409;DHT22;7803;48.130;13.788;2022-10-31T02:18:48;22.50;99.90
15409;DHT22;7803;48.130;13.788;2022-10-31T02:21:55;22.60;99.90
15409;DHT22;7803;48.130;13.788;2022-10-31T02:25:13;22.50;99.90
15409;DHT22;7803;48.130;13.788;2022-10-31T02:31:56;22.50;99.90
15409;DHT22;7803;48.130;13.788;2022-10-31T02:35:08;22.60;99.90
15409;DHT22;7803;48.130;13.788;2022-10-31T02:41:40;22.50;99.90
15409;DHT22;7803;48.130;13.788;2022-10-31T02:44:58;22.60;99.90
15409;DHT22;7803;48.130;13.788;2022-10-31T02:48:08;22.50;99.90
15409;DHT22;7803;48.130;13.788;2022-10-31T02:51:11;22.50;99.90
15409;DHT22;7803;48.130;13.788;2022-10-31T02:54:22;22.50;99.90
15409;DHT22;7803;48.130;13.788;2022-10-31T02:57:25;22.50;99.90
15409;DHT22;7803;48.130;13.788;2022-10-31T03:00:33;22.50;99.90
15409;DHT22;7803;48.130;13.788;2022-10-31T03:03:48;22.50;99.90
15409;DHT22;7803;48.130;13.788;2022-10-31T03:06:57;22.50;99.90
15409;DHT22;7803;48.130;13.788;2022-10-31T03:10:06;22.50;99.90
15409;DHT22;7803;48.130;13.788;2022-10-31T03:13:12;22.50;99.90
15409;DHT22;7803;48.130;13.788;2022-10-31T03:16:21;22.50;99.90
15409;DHT22;7803;48.130;13.788;2022-10-31T03:19:31;22.50;99.90
15409;DHT22;7803;48.130;13.788;2022-10-31T03:22:35;22.50;99.90
15409;DHT22;7803;48.130;13.788;2022-10-31T03:25:39;22.50;99.90
15409;DHT22;7803;48.130;13.788;2022-10-31T03:28:46;22.50;99.90
15409;DHT22;7803;48.130;13.788;2022-10-31T03:31:54;22.50;99.90
15409;DHT22;7803;48.130;13.788;2022-10-31T03:35:00;22.50;99.90
15409;DHT22;7803;48.130;13.788;2022-10-31T03:38:03;22.50;99.90
15409;DHT22;7803;48.130;13.788;2022-10-31T03:41:11;22.50;99.90
15409;DHT22;7803;48.130;13.788;2022-10-31T03:44:16;22.50;99.90
15409;DHT22;7803;48.130;13.788;2022-10-31T03:47:19;22.40;99.90
15409;DHT22;7803;48.130;13.788;2022-10-31T03:50:25;22.40;99.90
15409;DHT22;7803;48.130;13.788;2022-10-31T03:53:34;22.40;99.90
15409;DHT22;7803;48.130;13.788;2022-10-31T03:56:41;22.40;99.90
15409;DHT22;7803;48.130;13.788;2022-10-31T03:59:48;22.40;99.90
15409;DHT22;7803;48.130;13.788;2022-10-31T04:03:00;22.40;99.90
15409;DHT22;7803;48.130;13.788;2022-10-31T04:06:07;22.40;99.90
15409;DHT22;7803;48.130;13.788;2022-10-31T04:09:10;22.40;99.90
15409;DHT22;7803;48.130;13.788;2022-10-31T04:12:14;22.40;99.90
15409;DHT22;7803;48.130;13.788;2022-10-31T04:15:17;22.40;99.90
15409;DHT22;7803;48.130;13.788;2022-10-31T04:18:22;22.40;99.90
15409;DHT22;7803;48.130;13.788;2022-10-31T04:21:29;22.40;99.90
15409;DHT22;7803;48.130;13.788;2022-10-31T04:24:31;22.40;99.90
15409;DHT22;7803;48.130;13.788;2022-10-31T04:27:33;22.40;99.90
15409;DHT22;7803;48.130;13.788;2022-10-31T04:30:35;22.40;99.90
15409;DHT22;7803;48.130;13.788;2022-10-31T04:33:37;22.40;99.90
15409;DHT22;7803;48.130;13.788;2022-10-31T04:36:41;22.40;99.90
15409;DHT22;7803;48.130;13.788;2022-10-31T04:39:43;22.40;99.90
15409;DHT22;7803;48.130;13.788;2022-10-31T04:42:45;22.40;99.90
15409;DHT22;7803;48.130;13.788;2022-10-31T04:45:47;22.40;99.90
15409;DHT22;7803;48.130;13.788;2022-10-31T04:48:49;22.40;99.90
15409;DHT22;7803;48.130;13.788;2022-10-31T04:51:52;22.40;99.90
15409;DHT22;7803;48.130;13.788;2022-10-31T04:54:54;22.40;99.90
15409;DHT22;7803;48.130;13.788;2022-10-31T04:57:56;22.40;99.90
15409;DHT22;7803;48.130;13.788;2022-10-31T05:00:58;22.40;99.90
15409;DHT22;7803;48.130;13.788;2022-10-31T05:04:00;22.40;99.90
15409;DHT22;7803;48.130;13.788;2022-10-31T05:07:03;22.50;99.90
15409;DHT22;7803;48.130;13.788;2022-10-31T05:10:06;22.40;99.90
15409;DHT22;7803;48.130;13.788;2022-10-31T05:13:10;22.50;99.90
15409;DHT22;7803;48.130;13.788;2022-10-31T05:16:12;22.50;99.90
15409;DHT22;7803;48.130;13.788;2022-10-31T05:19:14;22.50;99.90
15409;DHT22;7803;48.130;13.788;2022-10-31T05:22:17;22.50;99.90
15409;DHT22;7803;48.130;13.788;2022-10-31T05:25:21;22.50;99.90
15409;DHT22;7803;48.130;13.788;2022-10-31T05:28:23;22.50;99.90
15409;DHT22;7803;48.130;13.788;2022-10-31T05:31:25;22.50;99.90
15409;DHT22;7803;48.130;13.788;2022-10-31T05:34:27;22.50;99.90
15409;DHT22;7803;48.130;13.788;2022-10-31T05:37:30;22.50;99.90
15409;DHT22;7803;48.130;13.788;2022-10-31T05:40:32;22.50;99.90
15409;DHT22;7803;48.130;13.788;2022-10-31T05:43:34;22.50;99.90
15409;DHT22;7803;48.130;13.788;2022-10-31T05:46:36;22.60;99.90
15409;DHT22;7803;48.130;13.788;2022-10-31T05:49:38;22.60;99.90
15409;DHT22;7803;48.130;13.788;2022-10-31T05:52:42;22.60;99.90
15409;DHT22;7803;48.130;13.788;2022-10-31T05:55:44;22.60;99.90
15409;DHT22;7803;48.130;13.788;2022-10-31T05:58:46;22.60;99.90
15409;DHT22;7803;48.130;13.788;2022-10-31T06:01:48;22.60;99.90
15409;DHT22;7803;48.130;13.788;2022-10-31T06:04:50;22.60;99.90
15409;DHT22;7803;48.130;13.788;2022-10-31T06:07:53;22.60;99.90
15409;DHT22;7803;48.130;13.788;2022-10-31T06:10:55;22.60;99.90
15409;DHT22;7803;48.130;13.788;2022-10-31T06:13:57;22.60;99.90
15409;DHT22;7803;48.130;13.788;2022-10-31T06:16:59;22.60;99.90
15409;DHT22;7803;48.130;13.788;2022-10-31T06:20:02;22.60;99.90
15409;DHT22;7803;48.130;13.788;2022-10-31T06:23:05;22.60;99.90
15409;DHT22;7803;48.130;13.788;2022-10-31T06:26:07;22.60;99.90
15409;DHT22;7803;48.130;13.788;2022-10-31T06:29:09;22.60;99.90
15409;DHT22;7803;48.130;13.788;2022-10-31T06:32:12;22.60;99.90
15409;DHT22;7803;48.130;13.788;2022-10-31T06:35:14;22.60;99.90
15409;DHT22;7803;48.130;13.788;2022-10-31T06:38:18;22.60;99.90
15409;DHT22;7803;48.130;13.788;2022-10-31T06:41:20;22.70;99.90
15409;DHT22;7803;48.130;13.788;2022-10-31T06:44:22;22.60;99.90
15409;DHT22;7803;48.130;13.788;2022-10-31T06:47:24;22.70;99.90
15409;DHT22;7803;48.130;13.788;2022-10-31T06:50:26;22.70;99.90
15409;DHT22;7803;48.130;13.788;2022-10-31T06:53:29;22.60;99.90
15409;DHT22;7803;48.130;13.788;2022-10-31T06:56:31;22.60;99.90
15409;DHT22;7803;48.130;13.788;2022-10-31T06:59:33;22.60;99.90
15409;DHT22;7803;48.130;13.788;2022-10-31T07:02:35;22.60;99.90
15409;DHT22;7803;48.130;13.788;2022-10-31T07:05:37;22.70;99.90
15409;DHT22;7803;48.130;13.788;2022-10-31T07:08:41;22.70;99.90
15409;DHT22;7803;48.130;13.788;2022-10-31T07:11:43;22.70;99.90
15409;DHT22;7803;48.130;13.788;2022-10-31T07:14:45;22.70;99.90
15409;DHT22;7803;48.130;13.788;2022-10-31T07:17:47;22.70;99.90
15409;DHT22;7803;48.130;13.788;2022-10-31T07:20:49;22.70;99.90
15409;DHT22;7803;48.130;13.788;2022-10-31T07:23:52;22.70;99.90
15409;DHT22;7803;48.130;13.788;2022-10-31T07:26:55;22.70;99.90
15409;DHT22;7803;48.130;13.788;2022-10-31T07:29:57;22.70;99.90
15409;DHT22;7803;48.130;13.788;2022-10-31T07:32:59;22.70;99.90
15409;DHT22;7803;48.130;13.788;2022-10-31T07:36:01;22.70;99.90
15409;DHT22;7803;48.130;13.788;2022-10-31T07:39:04;22.70;99.90
15409;DHT22;7803;48.130;13.788;2022-10-31T07:42:06;22.70;99.90
15409;DHT22;7803;48.130;13.788;2022-10-31T07:45:11;22.70;99.90
15409;DHT22;7803;48.130;13.788;2022-10-31T07:48:13;22.70;99.90
15409;DHT22;7803;48.130;13.788;2022-10-31T07:51:15;22.70;99.90
15409;DHT22;7803;48.130;13.788;2022-10-31T07:54:18;22.70;99.90
15409;DHT22;7803;48.130;13.788;2022-10-31T07:57:20;22.70;99.90
15409;DHT22;7803;48.130;13.788;2022-10-31T08:00:23;22.70;99.90
15409;DHT22;7803;48.130;13.788;2022-10-31T08:03:25;22.70;99.90
15409;DHT22;7803;48.130;13.788;2022-10-31T08:06:27;22.70;99.90
15409;DHT22;7803;48.130;13.788;2022-10-31T08:09:30;22.70;99.90
15409;DHT22;7803;48.130;13.788;2022-10-31T08:12:32;22.80;99.90
15409;DHT22;7803;48.130;13.788;2022-10-31T08:15:34;22.80;99.90
15409;DHT22;7803;48.130;13.788;2022-10-31T08:18:38;22.80;99.90
15409;DHT22;7803;48.130;13.788;2022-10-31T08:21:40;22.80;99.90
15409;DHT22;7803;48.130;13.788;2022-10-31T08:24:44;22.80;99.90
15409;DHT22;7803;48.130;13.788;2022-10-31T08:27:49;22.70;99.90
15409;DHT22;7803;48.130;13.788;2022-10-31T08:30:51;22.80;99.90
15409;DHT22;7803;48.130;13.788;2022-10-31T08:33:53;22.80;99.90
15409;DHT22;7803;48.130;13.788;2022-10-31T08:36:55;22.80;99.90
15409;DHT22;7803;48.130;13.788;2022-10-31T08:39:58;22.80;99.90
15409;DHT22;7803;48.130;13.788;2022-10-31T08:43:02;22.80;99.90
15409;DHT22;7803;48.130;13.788;2022-10-31T08:46:05;22.80;99.90
15409;DHT22;7803;48.130;13.788;2022-10-31T08:49:07;22.80;99.90
15409;DHT22;7803;48.130;13.788;2022-10-31T08:52:09;22.80;99.90
15409;DHT22;7803;48.130;13.788;2022-10-31T08:55:13;22.90;99.90
15409;DHT22;7803;48.130;13.788;2022-10-31T08:58:16;22.80;99.90
15409;DHT22;7803;48.130;13.788;2022-10-31T09:01:19;22.80;99.90
15409;DHT22;7803;48.130;13.788;2022-10-31T09:04:21;22.80;99.90
15409;DHT22;7803;48.130;13.788;2022-10-31T09:07:23;22.80;99.90
15409;DHT22;7803;48.130;13.788;2022-10-31T09:10:27;22.80;99.90
15409;DHT22;7803;48.130;13.788;2022-10-31T09:13:30;22.80;99.90
15409;DHT22;7803;48.130;13.788;2022-10-31T09:16:32;22.80;99.90
15409;DHT22;7803;48.130;13.788;2022-10-31T09:19:34;22.80;99.90
15409;DHT22;7803;48.130;13.788;2022-10-31T09:22:36;22.80;99.90
15409;DHT22;7803;48.130;13.788;2022-10-31T09:25:40;22.80;99.90
15409;DHT22;7803;48.130;13.788;2022-10-31T09:28:43;22.80;99.90
15409;DHT22;7803;48.130;13.788;2022-10-31T09:31:45;22.80;99.90
15409;DHT22;7803;48.130;13.788;2022-10-31T09:34:47;22.80;99.90
15409;DHT22;7803;48.130;13.788;2022-10-31T09:37:54;22.80;99.90
15409;DHT22;7803;48.130;13.788;2022-10-31T09:41:05;22.90;99.90
15409;DHT22;7803;48.130;13.788;2022-10-31T09:44:15;22.80;99.90
15409;DHT22;7803;48.130;13.788;2022-10-31T09:47:26;22.80;99.90
15409;DHT22;7803;48.130;13.788;2022-10-31T09:50:38;22.80;99.90
15409;DHT22;7803;48.130;13.788;2022-10-31T09:53:44;22.80;99.90
15409;DHT22;7803;48.130;13.788;2022-10-31T09:56:49;22.90;99.90
15409;DHT22;7803;48.130;13.788;2022-10-31T09:59:51;22.90;99.90
15409;DHT22;7803;48.130;13.788;2022-10-31T10:02:58;22.80;99.90
15409;DHT22;7803;48.130;13.788;2022-10-31T10:06:06;22.90;99.90
15409;DHT22;7803;48.130;13.788;2022-10-31T10:09:13;22.80;99.90
15409;DHT22;7803;48.130;13.788;2022-10-31T10:12:28;22.80;99.90
15409;DHT22;7803;48.130;13.788;2022-10-31T10:15:51;22.80;99.90
15409;DHT22;7803;48.130;13.788;2022-10-31T10:19:04;22.90;99.90
15409;DHT22;7803;48.130;13.788;2022-10-31T10:22:18;22.90;99.90
15409;DHT22;7803;48.130;13.788;2022-10-31T10:25:23;22.90;99.90
15409;DHT22;7803;48.130;13.788;2022-10-31T10:28:31;22.80;99.90
15409;DHT22;7803;48.130;13.788;2022-10-31T10:31:41;22.90;99.90
15409;DHT22;7803;48.130;13.788;2022-10-31T10:34:49;22.90;99.90
15409;DHT22;7803;48.130;13.788;2022-10-31T10:37:56;22.90;99.90
15409;DHT22;7803;48.130;13.788;2022-10-31T10:41:02;22.90;99.90
15409;DHT22;7803;48.130;13.788;2022-10-31T10:44:10;22.90;99.90
15409;DHT22;7803;48.130;13.788;2022-10-31T10:47:12;22.90;99.90
15409;DHT22;7803;48.130;13.788;2022-10-31T10:50:35;22.90;99.90
15409;DHT22;7803;48.130;13.788;2022-10-31T10:53:47;22.90;99.90
15409;DHT22;7803;48.130;13.788;2022-10-31T10:57:10;23.00;99.90
15409;DHT22;7803;48.130;13.788;2022-10-31T11:00:19;22.90;99.90
15409;DHT22;7803;48.130;13.788;2022-10-31T11:03:21;23.00;99.90
15409;DHT22;7803;48.130;13.788;2022-10-31T11:06:24;22.90;99.90
15409;DHT22;7803;48.130;13.788;2022-10-31T11:09:27;23.00;99.90
15409;DHT22;7803;48.130;13.788;2022-10-31T11:12:30;22.90;99.90
15409;DHT22;7803;48.130;13.788;2022-10-31T11:15:39;23.00;99.90
15409;DHT22;7803;48.130;13.788;2022-10-31T11:18:50;22.90;99.90
15409;DHT22;7803;48.130;13.788;2022-10-31T11:21:52;23.00;99.90
15409;DHT22;7803;48.130;13.788;2022-10-31T11:24:55;23.00;99.90
15409;DHT22;7803;48.130;13.788;2022-10-31T11:28:01;23.00;99.90
15409;DHT22;7803;48.130;13.788;2022-10-31T11:31:10;23.00;99.90
15409;DHT22;7803;48.130;13.788;2022-10-31T11:34:19;23.00;99.90
15409;DHT22;7803;48.130;13.788;2022-10-31T11:37:26;23.00;99.90
15409;DHT22;7803;48.130;13.788;2022-10-31T11:40:28;23.00;99.90
15409;DHT22;7803;48.130;13.788;2022-10-31T11:43:30;23.00;99.90
15409;DHT22;7803;48.130;13.788;2022-10-31T11:46:37;23.00;99.90
15409;DHT22;7803;48.130;13.788;2022-10-31T11:49:41;23.00;99.90
15409;DHT22;7803;48.130;13.788;2022-10-31T11:52:44;23.00;99.90
15409;DHT22;7803;48.130;13.788;2022-10-31T11:55:46;23.00;99.90
15409;DHT22;7803;48.130;13.788;2022-10-31T11:58:56;23.00;99.90
15409;DHT22;7803;48.130;13.788;2022-10-31T12:02:01;23.00;99.90
15409;DHT22;7803;48.130;13.788;2022-10-31T12:05:07;23.00;99.90
15409;DHT22;7803;48.130;13.788;2022-10-31T12:08:11;23.00;99.90
15409;DHT22;7803;48.130;13.788;2022-10-31T12:11:31;23.00;99.90
15409;DHT22;7803;48.130;13.788;2022-10-31T12:14:46;23.00;99.90
15409;DHT22;7803;48.130;13.788;2022-10-31T12:17:58;23.00;99.90
15409;DHT22;7803;48.130;13.788;2022-10-31T12:21:12;23.00;99.90
15409;DHT22;7803;48.130;13.788;2022-10-31T12:24:29;23.00;99.90
15409;DHT22;7803;48.130;13.788;2022-10-31T12:27:54;23.00;99.90
15409;DHT22;7803;48.130;13.788;2022-10-31T12:31:08;23.00;99.90
15409;DHT22;7803;48.130;13.788;2022-10-31T12:34:38;23.00;99.90
15409;DHT22;7803;48.130;13.788;2022-10-31T12:37:52;23.00;99.90
15409;DHT22;7803;48.130;13.788;2022-10-31T12:41:07;23.00;99.90
15409;DHT22;7803;48.130;13.788;2022-10-31T12:44:29;23.00;99.90
15409;DHT22;7803;48.130;13.788;2022-10-31T12:47:54;23.00;99.90
15409;DHT22;7803;48.130;13.788;2022-10-31T12:51:08;23.00;99.90
15409;DHT22;7803;48.130;13.788;2022-10-31T12:54:34;23.00;99.90
15409;DHT22;7803;48.130;13.788;2022-10-31T12:57:41;23.00;99.90
15409;DHT22;7803;48.130;13.788;2022-10-31T13:00:46;23.00;99.90
15409;DHT22;7803;48.130;13.788;2022-10-31T13:03:55;23.00;99.90
15409;DHT22;7803;48.130;13.788;2022-10-31T13:07:04;23.10;99.90
15409;DHT22;7803;48.130;13.788;2022-10-31T13:10:16;23.00;99.90
15409;DHT22;7803;48.130;13.788;2022-10-31T13:13:24;23.00;99.90
15409;DHT22;7803;48.130;13.788;2022-10-31T13:16:34;23.00;99.90
15409;DHT22;7803;48.130;13.788;2022-10-31T13:19:40;23.00;99.90
15409;DHT22;7803;48.130;13.788;2022-10-31T13:22:45;23.00;99.90
15409;DHT22;7803;48.130;13.788;2022-10-31T13:25:52;23.00;99.90
15409;DHT22;7803;48.130;13.788;2022-10-31T13:29:01;23.00;99.90
15409;DHT22;7803;48.130;13.788;2022-10-31T13:32:07;23.00;99.90
15409;DHT22;7803;48.130;13.788;2022-10-31T13:35:16;23.00;99.90
15409;DHT22;7803;48.130;13.788;2022-10-31T13:38:25;23.00;99.90
15409;DHT22;7803;48.130;13.788;2022-10-31T13:41:48;23.00;99.90
15409;DHT22;7803;48.130;13.788;2022-10-31T13:44:51;23.00;99.90
15409;DHT22;7803;48.130;13.788;2022-10-31T13:47:58;23.00;99.90
15409;DHT22;7803;48.130;13.788;2022-10-31T13:51:03;23.00;99.90
15409;DHT22;7803;48.130;13.788;2022-10-31T13:54:22;23.00;99.90
15409;DHT22;7803;48.130;13.788;2022-10-31T13:57:30;23.00;99.90
15409;DHT22;7803;48.130;13.788;2022-10-31T14:00:33;23.00;99.90
15409;DHT22;7803;48.130;13.788;2022-10-31T14:03:38;23.00;99.90
15409;DHT22;7803;48.130;13.788;2022-10-31T14:06:51;23.00;99.90
15409;DHT22;7803;48.130;13.788;2022-10-31T14:09:59;23.00;99.90
15409;DHT22;7803;48.130;13.788;2022-10-31T14:13:07;23.00;99.90
15409;DHT22;7803;48.130;13.788;2022-10-31T14:16:18;23.00;99.90
15409;DHT22;7803;48.130;13.788;2022-10-31T14:19:22;23.00;99.90
15409;DHT22;7803;48.130;13.788;2022-10-31T14:22:29;23.00;99.90
15409;DHT22;7803;48.130;13.788;2022-10-31T14:25:34;23.00;99.90
15409;DHT22;7803;48.130;13.788;2022-10-31T14:28:37;23.10;99.90
15409;DHT22;7803;48.130;13.788;2022-10-31T14:31:41;23.10;99.90
15409;DHT22;7803;48.130;13.788;2022-10-31T14:34:52;23.00;99.90
15409;DHT22;7803;48.130;13.788;2022-10-31T14:38:22;23.00;99.90
15409;DHT22;7803;48.130;13.788;2022-10-31T14:41:49;23.00;99.90
15409;DHT22;7803;48.130;13.788;2022-10-31T14:45:09;23.00;99.90
15409;DHT22;7803;48.130;13.788;2022-10-31T14:48:29;23.00;99.90
15409;DHT22;7803;48.130;13.788;2022-10-31T14:51:38;23.00;99.90
15409;DHT22;7803;48.130;13.788;2022-10-31T14:54:45;23.00;99.90
15409;DHT22;7803;48.130;13.788;2022-10-31T14:57:54;23.00;99.90
15409;DHT22;7803;48.130;13.788;2022-10-31T15:00:57;23.00;99.90
15409;DHT22;7803;48.130;13.788;2022-10-31T15:04:03;23.00;99.90
15409;DHT22;7803;48.130;13.788;2022-10-31T15:07:10;23.00;99.90
15409;DHT22;7803;48.130;13.788;2022-10-31T15:10:20;23.00;99.90
15409;DHT22;7803;48.130;13.788;2022-10-31T15:13:24;23.00;99.90
15409;DHT22;7803;48.130;13.788;2022-10-31T15:16:33;23.00;99.90
15409;DHT22;7803;48.130;13.788;2022-10-31T15:19:36;23.00;99.90
15409;DHT22;7803;48.130;13.788;2022-10-31T15:22:38;23.00;99.90
15409;DHT22;7803;48.130;13.788;2022-10-31T15:25:41;23.00;99.90
15409;DHT22;7803;48.130;13.788;2022-10-31T15:28:44;23.00;99.90
15409;DHT22;7803;48.130;13.788;2022-10-31T15:31:50;23.00;99.90
15409;DHT22;7803;48.130;13.788;2022-10-31T15:34:53;23.00;99.90
15409;DHT22;7803;48.130;13.788;2022-10-31T15:37:57;23.00;99.90
15409;DHT22;7803;48.130;13.788;2022-10-31T15:41:02;23.00;99.90
15409;DHT22;7803;48.130;13.788;2022-10-31T15:44:14;23.00;99.90
15409;DHT22;7803;48.130;13.788;2022-10-31T15:47:19;23.00;99.90
15409;DHT22;7803;48.130;13.788;2022-10-31T15:50:25;23.00;99.90
15409;DHT22;7803;48.130;13.788;2022-10-31T15:53:34;23.00;99.90
15409;DHT22;7803;48.130;13.788;2022-10-31T15:56:37;22.90;99.90
15409;DHT22;7803;48.130;13.788;2022-10-31T15:59:44;23.00;99.90
15409;DHT22;7803;48.130;13.788;2022-10-31T16:02:46;22.90;99.90
15409;DHT22;7803;48.130;13.788;2022-10-31T16:05:50;22.90;99.90
15409;DHT22;7803;48.130;13.788;2022-10-31T16:08:52;22.90;99.90
15409;DHT22;7803;48.130;13.788;2022-10-31T16:11:56;23.00;99.90
15409;DHT22;7803;48.130;13.788;2022-10-31T16:15:02;23.00;99.90
15409;DHT22;7803;48.130;13.788;2022-10-31T16:18:04;23.00;99.90
15409;DHT22;7803;48.130;13.788;2022-10-31T16:21:08;22.90;99.90
15409;DHT22;7803;48.130;13.788;2022-10-31T16:24:17;23.00;99.90
15409;DHT22;7803;48.130;13.788;2022-10-31T16:27:21;23.00;99.90
15409;DHT22;7803;48.130;13.788;2022-10-31T16:30:36;22.90;99.90
15409;DHT22;7803;48.130;13.788;2022-10-31T16:33:39;23.00;99.90
15409;DHT22;7803;48.130;13.788;2022-10-31T16:36:42;23.00;99.90
15409;DHT22;7803;48.130;13.788;2022-10-31T16:39:44;22.90;99.90
15409;DHT22;7803;48.130;13.788;2022-10-31T16:42:46;23.00;99.90
15409;DHT22;7803;48.130;13.788;2022-10-31T16:45:51;23.00;99.90
15409;DHT22;7803;48.130;13.788;2022-10-31T16:48:54;22.90;99.90
15409;DHT22;7803;48.130;13.788;2022-10-31T16:51:56;23.00;99.90
15409;DHT22;7803;48.130;13.788;2022-10-31T16:54:59;23.00;99.90
15409;DHT22;7803;48.130;13.788;2022-10-31T16:58:02;23.00;99.90
15409;DHT22;7803;48.130;13.788;2022-10-31T17:01:06;23.00;99.90
15409;DHT22;7803;48.130;13.788;2022-10-31T17:04:12;23.00;99.90
15409;DHT22;7803;48.130;13.788;2022-10-31T17:07:15;23.00;99.90
15409;DHT22;7803;48.130;13.788;2022-10-31T17:10:17;22.90;99.90
15409;DHT22;7803;48.130;13.788;2022-10-31T17:13:21;22.90;99.90
15409;DHT22;7803;48.130;13.788;2022-10-31T17:16:26;23.00;99.90
15409;DHT22;7803;48.130;13.788;2022-10-31T17:19:28;22.90;99.90
15409;DHT22;7803;48.130;13.788;2022-10-31T17:22:30;22.90;99.90
15409;DHT22;7803;48.130;13.788;2022-10-31T17:25:32;22.90;99.90
15409;DHT22;7803;48.130;13.788;2022-10-31T17:28:35;22.90;99.90
15409;DHT22;7803;48.130;13.788;2022-10-31T17:31:38;22.90;99.90
15409;DHT22;7803;48.130;13.788;2022-10-31T17:34:41;22.90;99.90
15409;DHT22;7803;48.130;13.788;2022-10-31T17:37:44;22.90;99.90
15409;DHT22;7803;48.130;13.788;2022-10-31T17:40:46;23.00;99.90
15409;DHT22;7803;48.130;13.788;2022-10-31T17:43:53;22.90;99.90
15409;DHT22;7803;48.130;13.788;2022-10-31T17:46:57;22.90;99.90
15409;DHT22;7803;48.130;13.788;2022-10-31T17:50:00;22.90;99.90
15409;DHT22;7803;48.130;13.788;2022-10-31T17:53:03;22.90;99.90
15409;DHT22;7803;48.130;13.788;2022-10-31T17:56:07;22.90;99.90
15409;DHT22;7803;48.130;13.788;2022-10-31T17:59:09;22.90;99.90
15409;DHT22;7803;48.130;13.788;2022-10-31T18:02:13;22.90;99.90
15409;DHT22;7803;48.130;13.788;2022-10-31T18:05:15;22.90;99.90
15409;DHT22;7803;48.130;13.788;2022-10-31T18:08:18;22.90;99.90
15409;DHT22;7803;48.130;13.788;2022-10-31T18:11:20;22.90;99.90
15409;DHT22;7803;48.130;13.788;2022-10-31T18:14:23;22.90;99.90
15409;DHT22;7803;48.130;13.788;2022-10-31T18:17:28;22.90;99.90
15409;DHT22;7803;48.130;13.788;2022-10-31T18:20:30;22.90;99.90
15409;DHT22;7803;48.130;13.788;2022-10-31T18:23:32;22.90;99.90
15409;DHT22;7803;48.130;13.788;2022-10-31T18:26:35;22.90;99.90
15409;DHT22;7803;48.130;13.788;2022-10-31T18:29:37;22.90;99.90
15409;DHT22;7803;48.130;13.788;2022-10-31T18:32:41;22.90;99.90
15409;DHT22;7803;48.130;13.788;2022-10-31T18:35:43;22.90;99.90
15409;DHT22;7803;48.130;13.788;2022-10-31T18:38:46;23.00;99.90
15409;DHT22;7803;48.130;13.788;2022-10-31T18:41:48;22.90;99.90
15409;DHT22;7803;48.130;13.788;2022-10-31T18:44:50;22.90;99.90
15409;DHT22;7803;48.130;13.788;2022-10-31T18:47:55;22.90;99.90
15409;DHT22;7803;48.130;13.788;2022-10-31T18:51:00;22.90;99.90
15409;DHT22;7803;48.130;13.788;2022-10-31T18:54:03;22.90;99.90
15409;DHT22;7803;48.130;13.788;2022-10-31T18:57:05;22.90;99.90
15409;DHT22;7803;48.130;13.788;2022-10-31T19:00:08;22.90;99.90
15409;DHT22;7803;48.130;13.788;2022-10-31T19:03:12;22.90;99.90
15409;DHT22;7803;48.130;13.788;2022-10-31T19:06:14;22.90;99.90
15409;DHT22;7803;48.130;13.788;2022-10-31T19:09:17;22.90;99.90
15409;DHT22;7803;48.130;13.788;2022-10-31T19:12:21;22.90;99.90
15409;DHT22;7803;48.130;13.788;2022-10-31T19:15:23;22.70;99.90
15409;DHT22;7803;48.130;13.788;2022-10-31T19:18:27;22.90;99.90
15409;DHT22;7803;48.130;13.788;2022-10-31T19:21:32;23.00;99.90
15409;DHT22;7803;48.130;13.788;2022-10-31T19:24:35;22.90;99.90
15409;DHT22;7803;48.130;13.788;2022-10-31T19:27:38;22.90;99.90
15409;DHT22;7803;48.130;13.788;2022-10-31T19:30:41;22.90;99.90
15409;DHT22;7803;48.130;13.788;2022-10-31T19:33:45;23.00;99.90
15409;DHT22;7803;48.130;13.788;2022-10-31T19:36:48;22.90;99.90